Time;durP1;ratioP1;P1;durP2;ratioP2;P2;SDS_P1;SDS_P2;PMS_P1;PMS_P2;Temp;Humidity;BMP_temperature;BMP_pressure;BME280_temperature;BME280_humidity;BME280_pressure;Samples;Min_cycle;Max_cycle;Signal;HPM_P1;HPM_P2
2023/01/24 00:01:16;;;;;;;24.63;14.43;;;;;;;5.72;48.48;104139.50;7395187;19;20403;-63
2023/01/24 00:03:42;;;;;;;25.35;13.32;;;;;;;5.77;48.42;104136.94;7393018;19;20062;-65
2023/01/24 00:06:08;;;;;;;25.20;14.25;;;;;;;5.80;48.41;104125.66;7394048;19;20088;-65
2023/01/24 00:08:34;;;;;;;23.40;13.80;;;;;;;5.73;48.35;104124.91;7392291;19;20125;-65
2023/01/24 00:11:02;;;;;;;23.58;13.80;;;;;;;5.74;48.42;104121.97;7393054;19;20003;-64
2023/01/24 00:13:28;;;;;;;23.45;13.77;;;;;;;5.75;48.27;104120.09;7393180;19;19998;-65
2023/01/24 00:16:09;;;;;;;21.83;12.68;;;;;;;5.65;48.53;104117.09;7393933;19;19998;-65
2023/01/24 00:18:35;;;;;;;23.40;14.23;;;;;;;5.58;49.03;104111.75;7394002;19;19997;-65
2023/01/24 00:21:12;;;;;;;22.60;13.77;;;;;;;5.69;48.47;104110.13;7394423;19;19987;-65
2023/01/24 00:23:39;;;;;;;22.75;13.05;;;;;;;5.76;48.37;104110.91;7391359;19;20453;-65
2023/01/24 00:26:05;;;;;;;21.67;12.93;;;;;;;5.70;48.39;104106.38;7394332;19;20002;-65
2023/01/24 00:28:31;;;;;;;23.83;13.27;;;;;;;5.75;48.37;104110.06;7393572;19;19987;-65
2023/01/24 00:30:57;;;;;;;23.55;13.52;;;;;;;5.63;48.60;104105.66;7394152;19;19998;-65
2023/01/24 00:33:23;;;;;;;25.38;14.38;;;;;;;5.32;49.31;104102.00;7394217;19;20018;-62
2023/01/24 00:35:51;;;;;;;24.23;13.82;;;;;;;5.40;49.13;104109.84;7393405;19;20019;-62
2023/01/24 00:38:17;;;;;;;20.73;13.15;;;;;;;5.49;48.85;104107.66;7391930;19;19997;-62
2023/01/24 00:40:43;;;;;;;20.85;12.65;;;;;;;5.57;48.73;104105.50;7392099;19;20062;-61
2023/01/24 00:43:09;;;;;;;23.10;13.50;;;;;;;5.71;48.49;104099.94;7392597;19;20004;-62
2023/01/24 00:45:36;;;;;;;20.73;12.57;;;;;;;5.71;48.59;104094.50;7393918;19;20014;-64
2023/01/24 00:48:03;;;;;;;26.58;13.88;;;;;;;5.67;48.40;104096.00;7391376;19;20052;-61
2023/01/24 00:50:29;;;;;;;22.13;13.45;;;;;;;5.62;48.65;104093.97;7392129;19;20402;-62
2023/01/24 00:52:55;;;;;;;23.95;13.02;;;;;;;5.68;48.59;104086.81;7392621;19;20002;-62
2023/01/24 00:55:20;;;;;;;22.50;13.45;;;;;;;5.72;48.36;104079.88;7394303;19;20371;-61
2023/01/24 00:57:46;;;;;;;23.83;12.70;;;;;;;5.66;48.32;104078.06;7392195;19;20557;-62
2023/01/24 01:00:12;;;;;;;23.70;13.35;;;;;;;5.70;48.27;104084.72;7394508;19;20002;-62
2023/01/24 01:02:38;;;;;;;24.27;12.85;;;;;;;5.61;48.16;104077.91;7393195;19;20067;-62
2023/01/24 01:05:05;;;;;;;20.27;12.18;;;;;;;5.69;48.23;104083.03;7391157;19;20011;-62
2023/01/24 01:07:31;;;;;;;24.10;13.77;;;;;;;5.81;47.61;104083.09;7390588;19;20052;-62
2023/01/24 01:10:02;;;;;;;21.45;13.27;;;;;;;5.65;48.17;104079.13;7393180;19;20114;-62
2023/01/24 01:12:28;;;;;;;21.00;11.98;;;;;;;5.71;48.21;104078.25;7393381;19;20385;-62
2023/01/24 01:14:54;;;;;;;19.13;11.82;;;;;;;5.63;47.99;104082.06;7393704;19;20013;-63
2023/01/24 01:17:20;;;;;;;19.27;11.45;;;;;;;5.49;48.29;104080.56;7390093;19;20002;-63
2023/01/24 01:19:50;;;;;;;20.45;11.63;;;;;;;5.56;48.29;104082.16;7391702;19;20002;-63
2023/01/24 01:22:16;;;;;;;19.05;11.90;;;;;;;5.75;47.71;104080.25;7392613;19;20479;-63
2023/01/24 01:24:42;;;;;;;20.75;12.68;;;;;;;5.90;47.29;104082.56;7392272;19;20083;-63
2023/01/24 01:27:07;;;;;;;21.17;12.32;;;;;;;5.94;47.20;104089.19;7390623;19;20031;-63
2023/01/24 01:29:33;;;;;;;22.77;12.80;;;;;;;5.98;46.86;104072.47;7392780;19;19998;-62
2023/01/24 01:32:00;;;;;;;21.52;12.38;;;;;;;5.67;47.66;104075.13;7391172;19;20027;-63
2023/01/24 01:34:25;;;;;;;17.80;10.32;;;;;;;5.84;47.27;104078.06;7392586;19;20020;-62
2023/01/24 01:36:51;;;;;;;13.70;7.70;;;;;;;5.88;46.42;104078.44;7389744;19;19998;-62
2023/01/24 01:39:17;;;;;;;14.95;7.80;;;;;;;5.94;45.93;104082.91;7391687;19;20002;-63
2023/01/24 01:41:43;;;;;;;15.82;8.50;;;;;;;5.94;45.78;104078.34;7392652;19;20534;-63
2023/01/24 01:44:38;;;;;;;16.00;9.18;;;;;;;5.97;45.60;104070.81;7390205;19;20038;-62
2023/01/24 01:47:31;;;;;;;14.57;8.90;;;;;;;5.97;45.54;104077.03;7389139;19;20039;-61
2023/01/24 01:50:15;;;;;;;17.50;9.40;;;;;;;5.92;45.71;104064.16;7390864;19;20007;-61
2023/01/24 01:52:42;;;;;;;14.25;8.05;;;;;;;5.90;45.50;104076.31;7391852;19;20055;-61
2023/01/24 01:55:13;;;;;;;13.68;7.68;;;;;;;5.84;45.75;104072.66;7392752;19;20006;-62
2023/01/24 01:57:40;;;;;;;14.35;8.30;;;;;;;5.94;45.20;104067.50;7390525;19;20013;-61
2023/01/24 02:00:13;;;;;;;12.43;7.95;;;;;;;5.98;45.18;104064.34;7389012;19;20066;-61
2023/01/24 02:02:43;;;;;;;14.63;8.20;;;;;;;6.02;45.15;104066.34;7391117;19;19994;-61
2023/01/24 02:05:13;;;;;;;13.48;7.68;;;;;;;6.01;44.73;104061.13;7389312;19;20390;-61
2023/01/24 02:07:41;;;;;;;14.32;8.65;;;;;;;5.90;45.05;104066.28;7389874;19;20493;-61
2023/01/24 02:10:08;;;;;;;15.32;9.43;;;;;;;5.86;45.25;104067.81;7391908;19;20336;-63
2023/01/24 02:12:41;;;;;;;17.65;9.27;;;;;;;5.97;44.85;104054.53;7389156;19;20002;-62
2023/01/24 02:17:55;;;;;;;14.50;9.10;;;;;;;5.99;44.76;104055.94;7390716;19;20062;-63
2023/01/24 02:20:26;;;;;;;14.60;8.13;;;;;;;6.02;44.60;104058.19;7390814;19;19991;-62
2023/01/24 02:23:16;;;;;;;15.35;8.93;;;;;;;5.98;44.52;104058.91;7390446;19;20002;-64
2023/01/24 02:25:48;;;;;;;12.57;7.15;;;;;;;5.85;44.80;104051.78;7389578;19;20480;-64
2023/01/24 02:28:15;;;;;;;13.10;6.90;;;;;;;5.92;44.65;104063.34;7389722;19;20332;-63
2023/01/24 02:30:41;;;;;;;12.23;6.80;;;;;;;6.02;44.11;104062.81;7390611;19;20070;-62
2023/01/24 02:33:16;;;;;;;13.95;6.82;;;;;;;5.99;44.03;104064.06;7389453;19;20007;-62
2023/01/24 02:35:42;;;;;;;14.32;7.53;;;;;;;5.91;44.21;104057.13;7394943;19;20002;-62
2023/01/24 02:38:17;;;;;;;15.75;8.13;;;;;;;5.94;44.24;104067.50;7397194;19;20478;-62
2023/01/24 02:40:45;;;;;;;12.63;7.22;;;;;;;5.97;44.06;104068.09;7398747;19;20010;-62
2023/01/24 02:43:13;;;;;;;14.27;8.40;;;;;;;6.01;44.03;104063.84;7397003;19;20003;-63
2023/01/24 02:45:59;;;;;;;13.57;7.72;;;;;;;6.02;43.66;104074.47;7399320;19;20006;-66
2023/01/24 02:48:25;;;;;;;14.68;8.13;;;;;;;6.08;43.80;104078.97;7389354;19;20015;-66
2023/01/24 02:53:35;;;;;;;16.83;8.82;;;;;;;5.94;44.04;104080.22;7396958;19;20010;-66
2023/01/24 02:58:49;;;;;;;12.45;6.90;;;;;;;5.75;44.25;104074.81;7397185;19;20006;-62
2023/01/24 03:01:16;;;;;;;12.80;7.25;;;;;;;5.79;44.15;104079.78;7395680;19;19999;-63
2023/01/24 03:03:43;;;;;;;14.60;8.20;;;;;;;6.02;43.61;104077.19;7395235;19;20357;-65
2023/01/24 03:06:10;;;;;;;16.13;8.88;;;;;;;6.01;43.62;104070.13;7396571;19;20003;-66
2023/01/24 03:08:37;;;;;;;13.85;8.20;;;;;;;6.03;43.77;104069.91;7396054;19;20062;-64
2023/01/24 03:11:04;;;;;;;17.02;9.20;;;;;;;6.07;43.54;104069.19;7397195;19;20014;-64
2023/01/24 03:35:29;;;;;;;14.77;8.80;;;;;;;5.86;43.84;104080.53;7396594;19;19995;-62
2023/01/24 03:40:39;;;;;;;;;;;;;;;5.92;43.22;104079.63;7396228;19;19999;-63
2023/01/24 03:43:05;;;;;;;15.05;7.93;;;;;;;6.04;43.40;104071.53;7395337;19;19938;-64
2023/01/24 03:45:33;;;;;;;15.85;8.57;;;;;;;6.07;43.26;104071.88;7392974;19;20032;-63
2023/01/24 03:48:02;;;;;;;14.45;8.07;;;;;;;5.99;43.50;104072.22;7391999;19;20470;-64
2023/01/24 03:53:16;;;;;;;16.80;9.32;;;;;;;5.86;43.83;104081.38;7396145;19;20062;-64
2023/01/24 03:55:42;;;;;;;15.63;8.95;;;;;;;5.90;43.64;104081.75;7395063;19;20604;-64
2023/01/24 03:58:10;;;;;;;15.38;8.68;;;;;;;5.88;43.59;104079.25;7393386;19;20005;-67
2023/01/24 04:00:37;;;;;;;15.73;8.70;;;;;;;5.98;43.25;104089.56;7395231;19;19999;-67
2023/01/24 04:03:09;;;;;;;14.65;8.63;;;;;;;5.88;43.43;104094.69;7393988;19;19995;-67
2023/01/24 04:05:35;;;;;;;15.77;8.43;;;;;;;5.91;43.34;104094.25;7394638;19;20430;-67
2023/01/24 04:08:02;;;;;;;17.30;9.00;;;;;;;6.00;43.11;104097.47;7394688;19;19999;-68
2023/01/24 04:10:29;;;;;;;14.93;8.68;;;;;;;5.92;43.52;104096.69;7394562;19;20007;-64
2023/01/24 04:12:55;;;;;;;16.73;9.13;;;;;;;5.98;43.36;104096.88;7395533;19;20006;-64
2023/01/24 04:15:28;;;;;;;16.05;9.45;;;;;;;6.06;43.27;104094.66;7392567;19;20017;-64
2023/01/24 04:17:56;;;;;;;14.15;8.45;;;;;;;5.93;43.43;104095.66;7390552;19;20002;-64
2023/01/24 04:20:23;;;;;;;13.93;8.35;;;;;;;5.94;43.24;104097.31;7394536;19;20058;-64
2023/01/24 04:22:48;;;;;;;14.20;8.43;;;;;;;5.91;43.12;104095.06;7393700;19;20768;-64
2023/01/24 04:25:14;;;;;;;16.20;8.93;;;;;;;5.85;43.35;104100.56;7392843;19;19999;-64
2023/01/24 04:27:40;;;;;;;16.45;8.88;;;;;;;5.86;43.44;104103.06;7391892;19;19999;-64
2023/01/24 04:30:08;;;;;;;14.05;8.35;;;;;;;5.92;43.26;104101.31;7394160;19;20352;-64
2023/01/24 04:32:35;;;;;;;13.40;7.90;;;;;;;6.01;42.88;104099.09;7392595;19;20003;-64
2023/01/24 04:35:03;;;;;;;14.85;8.30;;;;;;;6.02;42.90;104100.78;7393267;19;20003;-64
2023/01/24 04:37:30;;;;;;;15.13;8.48;;;;;;;6.02;42.91;104111.63;7391733;19;20003;-64
2023/01/24 04:39:56;;;;;;;14.93;8.52;;;;;;;5.90;43.14;104104.25;7392507;19;20003;-64
2023/01/24 04:42:21;;;;;;;13.55;7.70;;;;;;;5.89;43.22;104096.34;7393230;19;20014;-64
2023/01/24 04:44:47;;;;;;;12.10;6.88;;;;;;;5.85;43.06;104095.97;7391881;19;20003;-64
2023/01/24 04:47:14;;;;;;;12.25;6.60;;;;;;;5.76;43.10;104094.66;7389477;19;19986;-64
2023/01/24 04:49:41;;;;;;;11.35;6.80;;;;;;;5.80;42.92;104103.16;7393515;19;20094;-67
2023/01/24 04:52:12;;;;;;;14.73;7.20;;;;;;;5.94;42.87;104110.03;7394212;19;20006;-64
2023/01/24 04:54:41;;;;;;;13.27;7.65;;;;;;;5.92;42.84;104099.41;7392949;19;20504;-64
2023/01/24 04:57:10;;;;;;;15.90;8.45;;;;;;;5.93;42.84;104095.66;7389556;19;20464;-64
2023/01/24 04:59:36;;;;;;;13.05;7.70;;;;;;;5.96;42.65;104091.69;7393834;19;20002;-64
2023/01/24 05:02:02;;;;;;;12.98;7.25;;;;;;;5.85;42.68;104092.44;7392329;19;20007;-64
2023/01/24 05:04:27;;;;;;;11.18;6.63;;;;;;;5.86;42.92;104091.38;7391904;19;20038;-64
2023/01/24 05:06:53;;;;;;;12.57;7.30;;;;;;;5.91;42.62;104088.81;7392006;19;19990;-64
2023/01/24 05:09:19;;;;;;;13.07;7.55;;;;;;;5.83;42.82;104095.38;7392537;19;20014;-64
2023/01/24 05:11:45;;;;;;;14.52;8.35;;;;;;;5.78;42.98;104092.53;7393589;19;20022;-64
2023/01/24 05:14:11;;;;;;;15.48;8.80;;;;;;;5.91;42.78;104089.66;7391821;19;20478;-64
2023/01/24 05:16:37;;;;;;;18.65;8.73;;;;;;;5.90;42.68;104087.16;7392506;19;20009;-63
2023/01/24 05:19:03;;;;;;;12.18;6.63;;;;;;;5.77;42.92;104090.88;7392884;19;20009;-66
2023/01/24 05:21:29;;;;;;;13.52;7.97;;;;;;;5.94;42.62;104093.78;7392512;19;20499;-65
2023/01/24 05:23:55;;;;;;;14.15;7.68;;;;;;;5.94;42.39;104089.19;7391445;19;19998;-65
2023/01/24 05:26:24;;;;;;;14.68;8.27;;;;;;;5.92;42.66;104088.56;7390719;19;20002;-67
2023/01/24 05:28:51;;;;;;;14.63;8.23;;;;;;;5.85;42.82;104098.69;7391588;19;19998;-64
2023/01/24 05:31:17;;;;;;;14.57;8.57;;;;;;;5.75;43.07;104095.69;7392993;19;20003;-64
2023/01/24 05:33:43;;;;;;;15.05;8.88;;;;;;;5.77;43.03;104104.41;7391030;19;20484;-64
2023/01/24 05:36:12;;;;;;;16.50;9.07;;;;;;;5.74;43.17;104102.16;7392708;19;19999;-63
2023/01/24 05:38:38;;;;;;;15.00;8.95;;;;;;;5.78;42.76;104091.72;7391886;19;20639;-63
2023/01/24 05:41:06;;;;;;;15.35;8.27;;;;;;;5.85;42.86;104095.97;7389983;19;20003;-66
2023/01/24 05:43:34;;;;;;;13.60;7.97;;;;;;;5.85;42.71;104095.97;7390787;19;20006;-65
2023/01/24 05:46:02;;;;;;;15.20;8.38;;;;;;;5.76;42.78;104102.78;7391251;19;20017;-66
2023/01/24 05:48:28;;;;;;;14.43;8.63;;;;;;;5.74;42.83;104105.72;7389291;19;20010;-66
2023/01/24 05:51:11;;;;;;;15.15;8.95;;;;;;;5.79;42.57;104107.72;7392134;19;20006;-63
2023/01/24 05:53:39;;;;;;;16.40;9.18;;;;;;;5.70;42.96;104104.50;7392560;19;19995;-63
2023/01/24 05:56:16;;;;;;;15.43;8.93;;;;;;;5.80;42.85;104109.38;7390913;19;20488;-63
2023/01/24 05:58:44;;;;;;;15.23;8.48;;;;;;;5.79;42.70;104112.31;7390878;19;20105;-63
2023/01/24 06:01:16;;;;;;;15.02;8.80;;;;;;;5.73;42.81;104105.94;7391983;19;20475;-65
2023/01/24 06:03:43;;;;;;;14.77;8.68;;;;;;;5.78;43.02;104108.78;7388704;19;19994;-65
2023/01/24 06:06:10;;;;;;;15.65;9.45;;;;;;;5.84;42.57;104110.59;7389045;19;20003;-64
2023/01/24 06:08:37;;;;;;;17.63;9.93;;;;;;;5.77;43.07;104106.31;7388732;19;20499;-65
2023/01/24 06:11:10;;;;;;;16.48;9.52;;;;;;;5.66;42.87;104111.44;7389437;19;20006;-65
2023/01/24 06:13:35;;;;;;;14.85;9.05;;;;;;;5.75;42.96;104106.53;7390767;19;20482;-66
2023/01/24 06:16:06;;;;;;;18.35;9.65;;;;;;;5.89;42.71;104110.75;7390413;19;20023;-65
2023/01/24 06:18:33;;;;;;;14.52;8.68;;;;;;;5.71;42.87;104113.47;7390693;19;20062;-65
2023/01/24 06:21:05;;;;;;;14.48;8.38;;;;;;;5.82;42.65;104107.28;7391009;19;20006;-65
2023/01/24 06:23:31;;;;;;;15.85;8.82;;;;;;;5.63;43.02;104119.19;7389896;19;20018;-65
2023/01/24 06:25:57;;;;;;;15.05;8.68;;;;;;;5.71;42.82;104110.75;7390705;19;20002;-65
2023/01/24 06:28:23;;;;;;;13.98;8.45;;;;;;;5.70;42.90;104119.94;7389811;19;20070;-65
2023/01/24 06:31:38;;;;;;;14.95;8.40;;;;;;;5.80;42.50;104114.81;7390355;19;19995;-65
2023/01/24 06:34:24;;;;;;;16.08;8.73;;;;;;;5.79;42.71;104117.75;7386044;19;20010;-65
2023/01/24 06:37:01;;;;;;;14.35;8.52;;;;;;;5.79;42.70;104118.56;7389537;19;20017;-64
2023/01/24 06:39:27;;;;;;;16.05;9.10;;;;;;;5.72;42.78;104117.81;7390990;19;20005;-65
2023/01/24 06:41:53;;;;;;;15.45;9.18;;;;;;;5.68;42.97;104113.94;7390218;19;20003;-65
2023/01/24 06:44:19;;;;;;;14.93;8.10;;;;;;;5.71;42.79;104113.47;7388919;19;20012;-65
2023/01/24 06:46:51;;;;;;;16.45;9.35;;;;;;;5.71;42.82;104116.19;7388819;19;20031;-65
2023/01/24 06:49:17;;;;;;;14.98;9.07;;;;;;;5.68;43.04;104119.34;7389584;19;20055;-65
2023/01/24 06:51:48;;;;;;;14.55;7.82;;;;;;;5.53;43.13;104112.41;7388108;19;20007;-65
2023/01/24 06:54:16;;;;;;;13.05;7.57;;;;;;;5.55;42.94;104117.59;7390826;19;20002;-65
2023/01/24 06:56:41;;;;;;;13.65;8.38;;;;;;;5.67;42.98;104120.38;7389340;19;20006;-65
2023/01/24 06:59:07;;;;;;;15.05;8.55;;;;;;;5.67;43.05;104121.22;7389705;19;20009;-65
2023/01/24 07:01:33;;;;;;;15.88;9.23;;;;;;;5.68;42.93;104122.06;7390183;19;20505;-65
2023/01/24 07:03:58;;;;;;;17.45;9.95;;;;;;;5.80;42.66;104127.53;7386296;19;20002;-65
2023/01/24 07:06:25;;;;;;;17.83;10.07;;;;;;;5.74;42.83;104131.97;7388898;19;20006;-64
2023/01/24 07:08:50;;;;;;;17.42;9.95;;;;;;;5.50;43.00;104129.13;7387131;19;20003;-64
2023/01/24 07:11:16;;;;;;;19.63;10.10;;;;;;;5.66;43.21;104137.69;7389594;19;20001;-63
2023/01/24 07:13:42;;;;;;;16.88;10.30;;;;;;;5.70;43.00;104134.31;7387879;19;20014;-64
2023/01/24 07:16:08;;;;;;;20.27;10.13;;;;;;;5.76;42.99;104146.16;7388733;19;20029;-64
2023/01/24 07:18:34;;;;;;;17.65;10.55;;;;;;;5.71;43.13;104146.00;7387004;19;20003;-64
2023/01/24 07:21:04;;;;;;;17.48;9.48;;;;;;;5.67;43.09;104150.19;7394359;19;20013;-64
2023/01/24 07:23:32;;;;;;;17.60;9.48;;;;;;;5.74;42.95;104151.78;7396671;19;20007;-64
2023/01/24 07:25:59;;;;;;;16.20;9.27;;;;;;;5.60;43.06;104150.28;7396548;19;20471;-64
2023/01/24 07:28:24;;;;;;;13.35;7.75;;;;;;;5.71;42.84;104148.72;7393738;19;20474;-63
2023/01/24 07:30:53;;;;;;;13.35;7.70;;;;;;;5.61;42.92;104153.81;7391834;19;20075;-62
2023/01/24 07:33:19;;;;;;;14.30;8.48;;;;;;;5.59;42.90;104156.75;7396074;19;20026;-63
2023/01/24 07:35:44;;;;;;;16.00;9.05;;;;;;;5.71;42.75;104160.38;7395617;19;20078;-62
2023/01/24 07:38:11;;;;;;;16.60;9.38;;;;;;;5.66;42.77;104160.22;7393129;19;20010;-63
2023/01/24 07:40:38;;;;;;;14.07;8.48;;;;;;;5.56;43.16;104168.88;7395999;19;20006;-62
2023/01/24 07:43:05;;;;;;;17.15;8.90;;;;;;;5.69;42.95;104164.34;7394713;19;20007;-62
2023/01/24 07:45:32;;;;;;;16.95;8.73;;;;;;;5.70;42.72;104168.72;7396656;19;20022;-62
2023/01/24 07:47:59;;;;;;;15.35;8.70;;;;;;;5.58;43.12;104174.06;7390394;19;19998;-62
2023/01/24 07:50:26;;;;;;;16.40;9.88;;;;;;;5.74;42.71;104180.75;7395777;19;20027;-63
2023/01/24 07:52:54;;;;;;;16.20;8.68;;;;;;;5.70;42.80;104174.97;7395826;19;19999;-63
2023/01/24 07:55:21;;;;;;;17.58;9.68;;;;;;;5.68;42.93;104170.84;7396168;19;20454;-63
2023/01/24 07:57:47;;;;;;;18.63;11.35;;;;;;;5.76;42.89;104181.38;7392181;19;20006;-63
2023/01/24 08:00:14;;;;;;;16.58;9.13;;;;;;;5.81;42.76;104178.81;7394797;19;20347;-63
2023/01/24 08:02:41;;;;;;;16.65;9.18;;;;;;;5.73;42.94;104177.22;7393968;19;19999;-63
2023/01/24 08:05:07;;;;;;;14.48;8.98;;;;;;;5.65;43.01;104169.41;7395533;19;20405;-63
2023/01/24 08:07:33;;;;;;;15.15;8.43;;;;;;;5.49;43.26;104176.25;7392264;19;20016;-63
2023/01/24 08:09:59;;;;;;;16.88;10.05;;;;;;;5.53;43.50;104177.44;7394315;19;19994;-63
2023/01/24 08:12:25;;;;;;;18.05;9.48;;;;;;;5.43;43.34;104174.41;7394888;19;19994;-63
2023/01/24 08:14:50;;;;;;;17.23;9.98;;;;;;;5.62;43.03;104171.72;7392419;19;19999;-63
2023/01/24 08:17:17;;;;;;;16.98;9.68;;;;;;;5.67;42.97;104177.31;7392430;19;20069;-63
2023/01/24 08:19:43;;;;;;;15.10;9.23;;;;;;;5.57;42.75;104181.38;7394684;19;19991;-63
2023/01/24 08:22:09;;;;;;;16.13;9.18;;;;;;;5.62;42.96;104177.97;7393009;19;20314;-63
2023/01/24 08:24:35;;;;;;;15.15;9.07;;;;;;;5.73;42.50;104187.25;7392493;19;20018;-63
2023/01/24 08:27:02;;;;;;;15.13;9.00;;;;;;;5.80;42.49;104189.91;7391431;19;20486;-61
2023/01/24 08:29:29;;;;;;;13.52;8.05;;;;;;;5.61;42.88;104191.75;7392051;19;20094;-61
2023/01/24 08:31:55;;;;;;;16.30;8.68;;;;;;;5.60;42.81;104193.63;7392633;19;20006;-63
2023/01/24 08:34:21;;;;;;;14.00;7.72;;;;;;;5.61;42.77;104191.75;7394606;19;20002;-62
2023/01/24 08:36:47;;;;;;;15.30;8.50;;;;;;;5.61;42.78;104194.44;7392839;19;20002;-62
2023/01/24 08:39:12;;;;;;;14.50;8.32;;;;;;;5.56;42.86;104198.69;7393170;19;20047;-62
2023/01/24 08:41:38;;;;;;;14.23;8.68;;;;;;;5.55;42.94;104196.19;7393176;19;20022;-62
2023/01/24 08:44:04;;;;;;;15.52;9.23;;;;;;;5.55;42.94;104198.91;7392244;19;19998;-64
2023/01/24 08:46:53;;;;;;;14.43;8.68;;;;;;;5.62;42.92;104199.66;7389854;19;20153;-64
2023/01/24 08:49:19;;;;;;;14.13;8.55;;;;;;;5.61;42.91;104202.59;7393453;19;20014;-64
2023/01/24 08:51:45;;;;;;;15.88;8.98;;;;;;;5.56;42.76;104211.41;7393006;19;20031;-64
2023/01/24 08:54:11;;;;;;;15.00;9.10;;;;;;;5.62;42.74;104206.97;7393562;19;20136;-64
2023/01/24 08:56:37;;;;;;;16.90;10.05;;;;;;;5.59;42.74;104207.41;7391141;19;19999;-62
2023/01/24 08:59:03;;;;;;;28.17;16.63;;;;;;;5.59;42.95;104212.81;7393447;19;20006;-62
2023/01/24 09:01:28;;;;;;;25.52;14.98;;;;;;;5.70;42.82;104209.38;7393507;19;20111;-63
2023/01/24 09:03:59;;;;;;;21.15;12.00;;;;;;;5.75;42.54;104212.25;7390225;19;20479;-62
2023/01/24 09:06:25;;;;;;;20.23;12.38;;;;;;;5.78;42.55;104219.94;7393300;19;20030;-64
2023/01/24 09:08:54;;;;;;;16.05;8.38;;;;;;;5.63;42.84;104220.28;7390155;19;20013;-63
2023/01/24 09:11:21;;;;;;;15.73;9.02;;;;;;;5.65;42.70;104218.19;7391383;19;20622;-64
2023/01/24 09:13:47;;;;;;;16.08;9.45;;;;;;;5.76;42.41;104213.91;7392947;19;20005;-62
2023/01/24 09:16:13;;;;;;;21.85;9.13;;;;;;;5.75;42.54;104223.09;7390820;19;19995;-63
2023/01/24 09:18:38;;;;;;;15.82;8.98;;;;;;;5.60;42.81;104211.78;7389739;19;20003;-65
2023/01/24 09:21:04;;;;;;;16.33;9.60;;;;;;;5.50;43.02;104209.59;7392929;19;20002;-64
2023/01/24 09:23:30;;;;;;;17.25;9.80;;;;;;;5.68;42.77;104220.44;7389757;19;20138;-64
2023/01/24 09:25:56;;;;;;;17.20;9.25;;;;;;;5.57;43.01;104216.59;7391651;19;20058;-63
2023/01/24 09:28:22;;;;;;;15.18;8.95;;;;;;;5.64;42.66;104216.53;7391615;19;19991;-63
2023/01/24 09:30:49;;;;;;;16.73;9.05;;;;;;;5.55;42.92;104210.56;7392248;19;20055;-63
2023/01/24 09:33:17;;;;;;;16.30;9.20;;;;;;;5.56;42.78;104206.81;7392004;19;20010;-63
2023/01/24 09:36:00;;;;;;;18.25;9.52;;;;;;;5.46;42.95;104211.91;7392656;19;20015;-63
2023/01/24 09:38:29;;;;;;;16.13;9.48;;;;;;;5.47;42.98;104212.72;7391716;19;19994;-62
2023/01/24 09:41:11;;;;;;;18.50;9.10;;;;;;;5.53;42.92;104212.66;7390166;19;20058;-63
2023/01/24 09:43:36;;;;;;;22.38;12.43;;;;;;;5.67;42.62;104207.13;7387555;19;19999;-63
2023/01/24 09:46:09;;;;;;;17.52;10.27;;;;;;;5.68;42.66;104216.91;7391279;19;19994;-63
2023/01/24 09:48:35;;;;;;;15.98;9.05;;;;;;;5.74;42.54;104216.00;7388747;19;19995;-63
2023/01/24 09:51:12;;;;;;;16.92;9.20;;;;;;;5.77;42.46;104212.84;7391354;19;20471;-63
2023/01/24 09:53:45;;;;;;;20.42;9.68;;;;;;;5.77;42.55;104215.56;7393443;19;20322;-64
2023/01/24 09:56:39;;;;;;;16.15;8.85;;;;;;;5.79;42.44;104215.34;7391061;19;20009;-63
2023/01/24 09:59:23;;;;;;;16.90;9.18;;;;;;;5.81;42.38;104208.66;7391247;19;20003;-62
2023/01/24 10:02:17;;;;;;;16.90;9.55;;;;;;;5.66;42.47;104210.88;7393021;19;20353;-67
2023/01/24 10:04:45;;;;;;;16.27;9.55;;;;;;;5.78;42.49;104208.28;7385148;19;20031;-60
2023/01/24 10:07:20;;;;;;;16.10;8.93;;;;;;;5.85;42.37;104209.84;7389276;19;20011;-61
2023/01/24 10:10:34;;;;;;;15.30;8.80;;;;;;;5.77;42.47;104204.72;7390780;19;20534;-61
2023/01/24 10:13:35;;;;;;;14.88;9.10;;;;;;;5.70;42.57;104202.06;7389091;19;20356;-62
2023/01/24 10:16:20;;;;;;;15.85;9.25;;;;;;;5.66;42.67;104206.28;7388160;19;20407;-62
2023/01/24 10:18:54;;;;;;;15.18;9.27;;;;;;;5.69;42.67;104200.44;7390130;19;20079;-62
2023/01/24 10:21:44;;;;;;;16.10;9.48;;;;;;;5.74;42.39;104197.88;7390415;19;20019;-62
2023/01/24 10:24:16;;;;;;;17.67;9.02;;;;;;;5.79;42.37;104199.06;7390125;19;19999;-61
2023/01/24 10:26:48;;;;;;;17.00;9.68;;;;;;;5.82;42.31;104198.63;7389424;19;19998;-63
2023/01/24 10:29:25;;;;;;;27.58;16.35;;;;;;;5.75;42.36;104196.81;7394773;19;20065;-61
2023/01/24 10:31:59;;;;;;;23.63;13.30;;;;;;;5.68;42.60;104193.34;7390261;19;20006;-62
2023/01/24 10:34:28;;;;;;;;;;;;;;;5.69;42.35;104188.75;7391408;19;20003;-61
2023/01/24 10:36:58;;;;;;;29.58;15.63;;;;;;;5.77;42.47;104191.16;7389876;19;19988;-61
2023/01/24 10:39:25;;;;;;;31.88;17.90;;;;;;;5.84;42.32;104189.22;7388531;19;19995;-61
2023/01/24 10:41:51;;;;;;;33.60;17.05;;;;;;;5.80;42.24;104185.28;7387762;19;20447;-62
2023/01/24 10:44:30;;;;;;;28.30;16.42;;;;;;;5.80;42.19;104185.28;7388659;19;20006;-61
2023/01/24 10:47:02;;;;;;;17.73;10.32;;;;;;;5.79;42.22;104183.63;7389926;19;20010;-61
2023/01/24 10:49:31;;;;;;;17.42;10.80;;;;;;;5.73;42.52;104185.38;7389885;19;20006;-64
2023/01/24 10:52:14;;;;;;;23.80;14.38;;;;;;;5.74;42.26;104187.03;7389450;19;20006;-63
2023/01/24 10:54:47;;;;;;;20.98;13.02;;;;;;;5.73;42.54;104174.53;7390373;19;20365;-63
2023/01/24 10:57:19;;;;;;;18.33;10.52;;;;;;;5.70;42.44;104176.84;7396094;19;20005;-62
2023/01/24 10:59:46;;;;;;;19.38;11.88;;;;;;;5.63;42.54;104178.81;7396894;19;19998;-62
2023/01/24 11:02:24;;;;;;;19.48;11.23;;;;;;;5.67;42.67;104175.41;7396954;19;20006;-63
2023/01/24 11:05:03;;;;;;;17.33;11.20;;;;;;;5.69;42.76;104167.06;7396792;19;20054;-63
2023/01/24 11:07:35;;;;;;;19.15;11.90;;;;;;;5.81;42.46;104169.84;7396628;19;19995;-63
2023/01/24 11:10:15;;;;;;;17.42;9.95;;;;;;;5.69;42.15;104161.63;7396869;19;20005;-62
2023/01/24 11:12:56;;;;;;;15.68;10.23;;;;;;;5.62;42.49;104166.31;7396660;19;20006;-62
2023/01/24 11:15:26;;;;;;;17.95;11.05;;;;;;;5.66;42.47;104171.06;7395304;19;20001;-62
2023/01/24 11:17:55;;;;;;;17.98;11.02;;;;;;;5.53;42.64;104169.31;7396616;19;20392;-61
2023/01/24 11:20:30;;;;;;;17.02;10.73;;;;;;;5.63;42.68;104174.22;7396589;19;20344;-62
2023/01/24 11:23:03;;;;;;;18.55;10.68;;;;;;;5.62;42.60;104160.91;7396201;19;20030;-61
2023/01/24 11:25:29;;;;;;;17.67;10.73;;;;;;;5.78;42.30;104163.00;7394668;19;19995;-61
2023/01/24 11:27:55;;;;;;;18.65;10.95;;;;;;;5.86;42.18;104167.28;7396034;19;20026;-61
2023/01/24 11:30:22;;;;;;;20.60;11.65;;;;;;;5.72;42.38;104163.91;7396137;19;20087;-61
2023/01/24 11:33:05;;;;;;;18.17;11.35;;;;;;;5.72;42.43;104161.19;7395999;19;20006;-62
2023/01/24 11:35:39;;;;;;;18.13;10.77;;;;;;;5.75;42.12;104156.16;7396010;19;20002;-63
2023/01/24 11:38:23;;;;;;;18.63;11.30;;;;;;;5.69;42.36;104167.91;7395879;19;19998;-62
2023/01/24 11:41:04;;;;;;;19.95;11.80;;;;;;;5.80;42.21;104166.31;7393726;19;20353;-63
2023/01/24 11:43:55;;;;;;;20.80;12.40;;;;;;;5.81;42.25;104159.84;7394644;19;20329;-62
2023/01/24 11:47:02;;;;;;;19.45;10.75;;;;;;;5.86;42.37;104160.00;7396009;19;20010;-63
2023/01/24 11:49:49;;;;;;;17.20;11.20;;;;;;;5.88;42.32;104159.78;7396194;19;20066;-62
2023/01/24 11:52:33;;;;;;;16.95;10.40;;;;;;;5.75;42.23;104155.31;7394698;19;20011;-63
2023/01/24 11:55:24;;;;;;;18.63;10.98;;;;;;;5.67;42.82;104147.50;7395683;19;20007;-62
2023/01/24 11:57:59;;;;;;;18.55;11.25;;;;;;;5.77;42.30;104145.06;7394768;19;19994;-62
2023/01/24 12:00:37;;;;;;;20.70;11.15;;;;;;;5.78;42.30;104145.94;7395783;19;20006;-62
2023/01/24 12:03:06;;;;;;;16.90;10.40;;;;;;;5.74;42.52;104137.41;7393218;19;19998;-63
2023/01/24 12:06:12;;;;;;;17.17;10.45;;;;;;;5.73;42.31;104138.47;7395383;19;20017;-63
2023/01/24 12:08:57;;;;;;;18.17;10.93;;;;;;;5.69;42.28;104145.38;7389013;19;20352;-62
2023/01/24 12:11:23;;;;;;;20.08;11.48;;;;;;;5.76;42.49;104140.72;7392613;19;20469;-63
2023/01/24 12:14:21;;;;;;;18.58;10.98;;;;;;;5.87;42.05;104131.00;7390645;19;19987;-63